Bel Air, Maryland - USA |
Today's Data File |
9/6/26
Time Wind Dir Wind Spd Wind Gust Hum In Humidity Temp In Temp Raw Barom Wind Chill Press Alt Cloud Base Dens Alt Temp Out R DailyRain 24HrRain RainRate
� mph mph % % �F �F in �F ft ft ft �F/hr in in in/hr
12:00am 352 0 0 45 87 73.3 66.4 29.34 66.4 536 995 1162 -0.86 0.00 0.00 0.000
12:01am 352 0 0 45 87 73.3 66.4 29.34 66.4 536 995 1162 -0.84 0.00 0.00 0.000
12:02am 352 0 0 45 87 73.3 66.4 29.34 66.4 536 995 1162 -0.83 0.00 0.00 0.000
12:03am 352 0 0 46 87 73.3 66.4 29.34 66.4 536 995 1162 -0.82 0.00 0.00 0.000
12:04am 352 0 0 45 87 73.3 66.3 29.34 66.3 537 995 1157 -0.90 0.00 0.00 0.000
12:05am 352 0 0 44 87 73.3 66.2 29.34 66.2 536 995 1149 -0.99 0.00 0.00 0.000
12:06am 352 0 0 45 87 73.3 66.2 29.34 66.2 537 995 1150 -0.97 0.00 0.00 0.000
12:07am 352 0 0 45 87 73.3 66.2 29.34 66.2 536 995 1149 -0.95 0.00 0.00 0.000
12:08am 352 0 0 45 87 73.3 66.2 29.34 66.2 536 995 1149 -0.94 0.00 0.00 0.000
12:09am 352 0 0 44 88 73.3 66.1 29.34 66.1 536 913 1143 -1.02 0.00 0.00 0.000
12:10am 352 0 0 45 88 73.3 66.1 29.34 66.1 536 913 1143 -1.00 0.00 0.00 0.000
12:11am 352 0 0 44 88 73.3 66.0 29.34 66.0 536 913 1136 -1.09 0.00 0.00 0.000
12:12am 352 0 0 44 88 73.3 66.0 29.34 66.0 536 913 1136 -1.07 0.00 0.00 0.000
12:13am 352 0 0 45 88 73.3 66.0 29.35 66.0 536 913 1135 -1.05 0.00 0.00 0.000
12:14am 352 0 0 45 89 73.3 65.9 29.35 65.9 536 832 1129 -1.13 0.00 0.00 0.000
12:15am 352 0 0 45 89 73.3 65.9 29.35 65.9 536 832 1129 -1.11 0.00 0.00 0.000
12:16am 352 0 0 44 88 73.3 65.9 29.35 65.9 536 912 1129 -1.10 0.00 0.00 0.000
12:17am 352 0 0 44 88 73.3 65.8 29.35 65.8 536 912 1122 -1.18 0.00 0.00 0.000
12:18am 352 0 0 44 88 73.1 65.8 29.35 65.8 536 912 1122 -1.16 0.00 0.00 0.000
12:19am 352 0 0 44 88 73.1 65.8 29.35 65.8 536 912 1122 -1.14 0.00 0.00 0.000
12:20am 352 0 0 45 88 73.1 65.7 29.35 65.7 536 912 1116 -1.22 0.00 0.00 0.000
12:21am 352 0 0 44 89 73.1 65.7 29.35 65.7 535 831 1115 -1.20 0.00 0.00 0.000
12:22am 352 0 0 44 89 73.1 65.7 29.35 65.7 536 831 1116 -1.18 0.00 0.00 0.000
12:23am 352 0 0 45 89 73.1 65.6 29.35 65.6 536 831 1109 -1.26 0.00 0.00 0.000
12:24am 352 0 0 44 89 73.1 65.6 29.35 65.6 536 831 1109 -1.23 0.00 0.00 0.000
12:25am 352 0 0 44 89 73.1 65.5 29.35 65.5 536 831 1103 -1.31 0.00 0.00 0.000
12:26am 352 0 0 44 89 73.1 65.5 29.35 65.5 536 831 1103 -1.29 0.00 0.00 0.000
12:27am 352 0 0 44 89 73.1 65.5 29.35 65.5 536 831 1103 -1.27 0.00 0.00 0.000
12:28am 352 0 0 44 89 73.1 65.5 29.35 65.5 536 831 1103 -1.25 0.00 0.00 0.000
12:29am 352 0 0 45 89 73.1 65.4 29.34 65.4 536 830 1098 -1.33 0.00 0.00 0.000
12:30am 352 0 0 45 89 73.1 65.4 29.34 65.4 536 830 1098 -1.31 0.00 0.00 0.000
12:31am 352 0 0 45 89 73.1 65.4 29.34 65.4 537 830 1099 -1.29 0.00 0.00 0.000
12:32am 352 0 0 44 89 73.1 65.4 29.34 65.4 536 830 1098 -1.27 0.00 0.00 0.000
12:33am 352 0 0 44 89 73.1 65.3 29.34 65.3 536 830 1091 -1.34 0.00 0.00 0.000
12:34am 352 0 0 45 89 73.1 65.4 29.34 65.4 536 830 1098 -1.22 0.00 0.00 0.000
12:35am 352 0 0 44 90 73.1 65.3 29.34 65.3 536 751 1091 -1.30 0.00 0.00 0.000
12:36am 352 0 0 44 90 73.1 65.3 29.35 65.3 536 751 1090 -1.28 0.00 0.00 0.000
12:37am 352 0 0 44 90 73.1 65.3 29.35 65.3 536 751 1090 -1.26 0.00 0.00 0.000
12:38am 352 0 0 45 90 73.1 65.3 29.35 65.3 536 751 1090 -1.24 0.00 0.00 0.000
12:39am 352 0 0 44 90 73.1 65.2 29.35 65.2 536 751 1084 -1.32 0.00 0.00 0.000
12:40am 352 0 0 44 90 73.1 65.3 29.35 65.3 536 751 1090 -1.20 0.00 0.00 0.000
12:41am 352 0 0 45 90 73.3 65.2 29.35 65.2 536 751 1084 -1.27 0.00 0.00 0.000
12:42am 352 0 0 44 90 73.3 65.2 29.35 65.2 536 751 1084 -1.25 0.00 0.00 0.000
12:43am 352 0 0 44 90 73.3 65.2 29.35 65.2 535 751 1083 -1.23 0.00 0.00 0.000
12:44am 352 0 0 44 91 73.3 65.2 29.35 65.2 536 672 1084 -1.21 0.00 0.00 0.000
12:45am 352 0 0 45 91 73.3 65.1 29.35 65.1 535 672 1076 -1.29 0.00 0.00 0.000
12:46am 352 0 0 45 91 73.3 65.1 29.35 65.1 535 672 1076 -1.27 0.00 0.00 0.000
12:47am 352 0 0 45 91 73.3 65.1 29.35 65.1 535 672 1076 -1.25 0.00 0.00 0.000
12:48am 352 0 0 45 91 73.3 65.0 29.35 65.0 535 672 1070 -1.33 0.00 0.00 0.000
12:49am 352 0 0 44 91 73.3 65.0 29.35 65.0 535 672 1070 -1.30 0.00 0.00 0.000
12:50am 352 0 0 44 91 73.3 65.0 29.35 65.0 535 672 1070 -1.28 0.00 0.00 0.000
12:51am 352 0 0 45 91 73.3 65.0 29.35 65.0 536 672 1071 -1.26 0.00 0.00 0.000
12:52am 352 0 0 44 91 73.3 64.9 29.35 64.9 536 671 1064 -1.34 0.00 0.00 0.000
12:53am 352 0 0 45 92 73.3 64.9 29.35 64.9 536 594 1064 -1.32 0.00 0.00 0.000
12:54am 352 0 0 45 91 73.3 64.8 29.35 64.8 536 671 1058 -1.40 0.00 0.00 0.000
12:55am 352 0 0 44 92 73.3 64.8 29.35 64.8 535 594 1057 -1.37 0.00 0.00 0.000
12:56am 352 0 0 44 91 73.3 64.8 29.35 64.8 536 671 1058 -1.35 0.00 0.00 0.000
12:57am 352 0 0 44 91 73.5 64.8 29.35 64.8 536 671 1058 -1.33 0.00 0.00 0.000
12:58am 352 0 0 45 91 73.5 64.7 29.35 64.7 536 671 1051 -1.40 0.00 0.00 0.000
12:59am 352 0 0 44 91 73.5 64.7 29.35 64.7 536 671 1051 -1.38 0.00 0.00 0.000
1:00am 352 0 0 45 91 73.5 64.6 29.35 64.6 536 670 1045 -1.46 0.00 0.00 0.000
1:01am 352 0 0 45 91 73.5 64.5 29.35 64.5 536 670 1038 -1.53 0.00 0.00 0.000
1:02am 352 0 0 44 91 73.5 64.5 29.35 64.5 536 670 1038 -1.51 0.00 0.00 0.000
1:03am 352 0 0 45 91 73.5 64.5 29.35 64.5 536 670 1038 -1.48 0.00 0.00 0.000
1:04am 352 0 0 45 91 73.5 64.5 29.35 64.5 536 670 1038 -1.46 0.00 0.00 0.000
1:05am 352 0 0 45 91 73.5 64.5 29.34 64.5 536 670 1040 -1.43 0.00 0.00 0.000
1:06am 352 0 0 44 91 73.5 64.5 29.34 64.5 536 670 1040 -1.41 0.00 0.00 0.000
1:07am 352 0 0 45 91 73.5 64.4 29.34 64.4 536 670 1033 -1.49 0.00 0.00 0.000
1:08am 352 0 0 45 91 73.3 64.4 29.34 64.4 536 670 1033 -1.46 0.00 0.00 0.000
1:09am 352 0 0 45 91 73.3 64.4 29.34 64.4 536 670 1033 -1.44 0.00 0.00 0.000
1:10am 352 0 0 44 91 73.3 64.5 29.34 64.5 536 670 1040 -1.32 0.00 0.00 0.000
1:11am 352 0 0 44 90 73.3 64.5 29.34 64.5 537 748 1041 -1.29 0.00 0.00 0.000
1:12am 352 0 0 44 90 73.3 64.5 29.34 64.5 537 748 1041 -1.27 0.00 0.00 0.000
1:13am 352 0 0 44 90 73.3 64.5 29.34 64.5 538 748 1042 -1.25 0.00 0.00 0.000
1:14am 352 0 0 45 90 73.3 64.5 29.34 64.5 538 748 1042 -1.23 0.00 0.00 0.000
1:15am 352 0 0 44 90 73.3 64.5 29.34 64.5 539 748 1043 -1.21 0.00 0.00 0.000
1:16am 352 0 0 44 90 73.3 64.5 29.34 64.5 539 748 1043 -1.19 0.00 0.00 0.000
1:17am 352 0 0 44 90 73.3 64.6 29.34 64.6 541 749 1052 -1.07 0.00 0.00 0.000
1:18am 352 0 0 45 90 73.1 64.5 29.34 64.5 540 748 1044 -1.15 0.00 0.00 0.000
1:19am 352 0 0 44 90 73.1 64.5 29.34 64.5 541 748 1045 -1.13 0.00 0.00 0.000
1:20am 352 0 0 45 90 73.1 64.5 29.34 64.5 542 748 1046 -1.12 0.00 0.00 0.000
1:21am 352 0 0 45 90 73.1 64.6 29.34 64.6 543 749 1054 -1.00 0.00 0.00 0.000
1:22am 352 0 0 44 90 73.1 64.6 29.33 64.6 546 749 1057 -0.98 0.00 0.00 0.000
1:23am 352 0 0 45 90 73.1 64.6 29.33 64.6 546 749 1057 -0.97 0.00 0.00 0.000
1:24am 352 0 0 44 90 73.1 64.6 29.33 64.6 547 749 1058 -0.95 0.00 0.00 0.000
1:25am 352 0 0 44 90 73.1 64.6 29.33 64.6 548 749 1060 -0.93 0.00 0.00 0.000
1:26am 352 0 0 45 90 73.3 64.5 29.33 64.5 548 748 1053 -1.02 0.00 0.00 0.000
1:27am 352 0 0 45 90 73.3 64.5 29.33 64.5 548 748 1053 -1.00 0.00 0.00 0.000
1:28am 352 0 0 44 90 73.3 64.5 29.33 64.5 548 748 1053 -0.98 0.00 0.00 0.000
1:29am 352 0 0 44 90 73.3 64.5 29.33 64.5 548 748 1053 -0.97 0.00 0.00 0.000
1:30am 352 0 0 44 90 73.3 64.5 29.33 64.5 547 748 1052 -0.95 0.00 0.00 0.000
1:31am 352 0 0 44 90 73.3 64.5 29.33 64.5 548 748 1053 -0.94 0.00 0.00 0.000
1:32am 352 0 0 44 91 73.3 64.5 29.33 64.5 548 670 1053 -0.92 0.00 0.00 0.000
1:33am 352 0 0 45 91 73.3 64.5 29.33 64.5 548 670 1053 -0.90 0.00 0.00 0.000
1:34am 352 0 0 44 91 73.3 64.5 29.33 64.5 548 670 1053 -0.89 0.00 0.00 0.000
1:35am 352 0 0 44 91 73.3 64.5 29.33 64.5 548 670 1053 -0.87 0.00 0.00 0.000
1:36am 352 0 0 45 91 73.3 64.5 29.33 64.5 548 670 1053 -0.86 0.00 0.00 0.000
1:37am 352 0 0 44 91 73.3 64.4 29.33 64.4 547 670 1046 -0.94 0.00 0.00 0.000
1:38am 352 0 0 44 92 73.3 64.4 29.33 64.4 548 593 1047 -0.93 0.00 0.00 0.000
1:39am 352 0 0 44 92 73.3 64.4 29.33 64.4 548 593 1047 -0.91 0.00 0.00 0.000
1:40am 352 0 0 44 91 73.3 64.3 29.33 64.3 548 670 1041 -1.00 0.00 0.00 0.000
1:41am 352 0 0 44 91 73.3 64.3 29.33 64.3 548 670 1041 -0.98 0.00 0.00 0.000
1:42am 352 0 0 45 91 73.3 64.2 29.33 64.2 548 669 1035 -1.06 0.00 0.00 0.000
1:43am 352 0 0 44 91 73.3 64.2 29.33 64.2 548 669 1035 -1.04 0.00 0.00 0.000
1:44am 352 0 0 44 91 73.3 64.2 29.33 64.2 549 669 1036 -1.03 0.00 0.00 0.000
1:45am 352 0 0 44 91 73.3 64.2 29.33 64.2 548 669 1035 -1.01 0.00 0.00 0.000
1:46am 352 0 0 44 91 73.5 64.1 29.33 64.1 548 669 1028 -1.09 0.00 0.00 0.000
1:47am 352 0 0 44 91 73.5 64.2 29.33 64.2 548 669 1035 -0.97 0.00 0.00 0.000
1:48am 352 0 0 44 91 73.5 64.1 29.33 64.1 548 669 1028 -1.06 0.00 0.00 0.000
1:49am 352 0 0 44 91 73.5 64.1 29.33 64.1 548 669 1027 -1.04 0.00 0.00 0.000
1:50am 352 0 0 44 91 73.5 64.1 29.33 64.1 548 669 1027 -1.02 0.00 0.00 0.000
1:51am 352 0 0 44 91 73.5 64.1 29.33 64.1 548 669 1027 -1.00 0.00 0.00 0.000
1:52am 352 0 0 44 91 73.5 64.1 29.33 64.1 548 669 1027 -0.99 0.00 0.00 0.000
1:53am 352 0 0 44 91 73.5 64.1 29.33 64.1 548 669 1027 -0.97 0.00 0.00 0.000
1:54am 352 0 0 44 91 73.5 64.1 29.33 64.1 548 669 1028 -0.96 0.00 0.00 0.000
1:55am 352 0 0 44 91 73.5 64.1 29.33 64.1 548 669 1028 -0.94 0.00 0.00 0.000
1:56am 352 0 0 44 91 73.5 64.1 29.33 64.1 548 669 1028 -0.93 0.00 0.00 0.000
1:57am 352 0 0 44 91 73.5 64.1 29.33 64.1 549 669 1030 -0.91 0.00 0.00 0.000
1:58am 352 0 0 44 91 73.5 64.0 29.33 64.0 549 669 1023 -0.99 0.00 0.00 0.000
1:59am 352 0 0 45 91 73.5 64.0 29.33 64.0 549 669 1023 -0.98 0.00 0.00 0.000
2:00am 352 0 0 44 91 73.5 64.1 29.33 64.1 549 669 1030 -0.86 0.00 0.00 0.000
2:01am 352 0 0 44 91 73.6 64.0 29.33 64.0 549 669 1023 -0.95 0.00 0.00 0.000
2:02am 352 0 0 44 91 73.6 64.1 29.33 64.1 549 669 1030 -0.84 0.00 0.00 0.000
2:03am 352 0 0 45 91 73.6 64.1 29.33 64.1 549 669 1030 -0.82 0.00 0.00 0.000
2:04am 352 0 0 44 91 73.6 64.1 29.33 64.1 549 669 1030 -0.81 0.00 0.00 0.000
2:05am 352 0 0 44 91 73.6 64.1 29.33 64.1 549 669 1030 -0.79 0.00 0.00 0.000
2:06am 352 0 0 44 91 73.6 64.1 29.33 64.1 549 669 1030 -0.78 0.00 0.00 0.000
2:07am 352 0 0 44 91 73.6 64.1 29.33 64.1 549 669 1030 -0.77 0.00 0.00 0.000
2:08am 352 0 0 44 91 73.6 64.1 29.33 64.1 549 669 1030 -0.75 0.00 0.00 0.000
2:09am 352 0 0 44 91 73.6 64.1 29.33 64.1 549 669 1030 -0.74 0.00 0.00 0.000
2:10am 352 0 0 44 91 73.6 64.1 29.33 64.1 549 669 1030 -0.73 0.00 0.00 0.000
2:11am 352 0 0 44 91 73.5 64.0 29.33 64.0 550 669 1024 -0.81 0.00 0.00 0.000
2:12am 352 0 0 44 91 73.5 64.0 29.33 64.0 550 669 1024 -0.80 0.00 0.00 0.000
2:13am 352 0 0 44 91 73.5 64.0 29.33 64.0 549 669 1023 -0.78 0.00 0.00 0.000
2:14am 352 0 0 44 91 73.5 63.9 29.33 63.9 549 668 1017 -0.87 0.00 0.00 0.000
2:15am 352 0 0 44 91 73.5 63.9 29.33 63.9 553 668 1021 -0.86 0.00 0.00 0.000
2:16am 352 0 0 44 91 73.5 63.9 29.33 63.9 553 668 1021 -0.84 0.00 0.00 0.000
2:17am 352 0 0 44 90 73.5 63.8 29.33 63.8 553 746 1015 -0.93 0.00 0.00 0.000
2:18am 352 0 0 44 90 73.5 63.9 29.32 63.9 555 746 1023 -0.81 0.00 0.00 0.000
2:19am 352 0 0 44 90 73.5 63.9 29.32 63.9 555 746 1023 -0.80 0.00 0.00 0.000
2:20am 352 0 0 46 91 73.5 63.8 29.33 63.8 554 668 1016 -0.89 0.00 0.00 0.000
2:21am 352 0 0 45 91 73.5 63.8 29.33 63.8 553 668 1015 -0.87 0.00 0.00 0.000
2:22am 352 0 0 44 91 73.5 63.8 29.33 63.8 553 668 1015 -0.86 0.00 0.00 0.000
2:23am 352 0 0 44 91 73.5 63.8 29.33 63.8 552 668 1014 -0.84 0.00 0.00 0.000
2:24am 352 0 0 44 91 73.5 63.8 29.33 63.8 552 668 1014 -0.83 0.00 0.00 0.000
2:25am 352 0 0 45 91 73.5 63.8 29.33 63.8 552 668 1014 -0.82 0.00 0.00 0.000
2:26am 352 0 0 44 91 73.5 63.8 29.33 63.8 552 668 1014 -0.80 0.00 0.00 0.000
2:27am 352 0 0 44 91 73.5 63.8 29.33 63.8 552 668 1014 -0.79 0.00 0.00 0.000
2:28am 352 0 0 44 92 73.5 63.8 29.33 63.8 551 591 1012 -0.78 0.00 0.00 0.000
2:29am 352 0 0 44 92 73.5 63.8 29.33 63.8 551 591 1012 -0.76 0.00 0.00 0.000
2:30am 352 0 0 44 92 73.5 63.8 29.33 63.8 550 591 1011 -0.75 0.00 0.00 0.000
2:31am 352 0 0 45 91 73.5 63.7 29.33 63.7 550 668 1005 -0.84 0.00 0.00 0.000
2:32am 352 0 0 44 91 73.5 63.7 29.33 63.7 551 668 1006 -0.82 0.00 0.00 0.000
2:33am 352 0 0 44 91 73.5 63.6 29.33 63.6 551 668 999 -0.91 0.00 0.00 0.000
2:34am 352 0 0 44 91 73.5 63.6 29.33 63.6 550 668 998 -0.89 0.00 0.00 0.000
2:35am 352 0 0 44 91 73.5 63.6 29.33 63.6 549 668 997 -0.88 0.00 0.00 0.000
2:36am 352 0 0 44 91 73.5 63.5 29.33 63.5 549 667 991 -0.96 0.00 0.00 0.000
2:37am 352 0 0 44 91 73.5 63.5 29.33 63.5 549 667 991 -0.95 0.00 0.00 0.000
2:38am 352 0 0 44 91 73.5 63.5 29.33 63.5 549 667 991 -0.93 0.00 0.00 0.000
2:39am 352 0 1 44 91 73.6 63.5 29.33 63.5 549 667 991 -0.92 0.00 0.00 0.000
2:40am 352 0 1 44 91 73.6 63.5 29.33 63.5 549 667 991 -0.90 0.00 0.00 0.000
2:41am 352 1 1 45 91 73.6 63.5 29.33 63.5 548 667 990 -0.89 0.00 0.00 0.000
2:42am 352 0 1 45 91 73.6 63.5 29.33 63.5 549 667 991 -0.87 0.00 0.00 0.000
2:43am 352 0 1 45 92 73.6 63.5 29.33 63.5 549 590 991 -0.86 0.00 0.00 0.000
2:44am 352 0 1 44 91 73.6 63.5 29.33 63.5 551 667 993 -0.84 0.00 0.00 0.000
2:45am 352 0 1 45 91 73.6 63.5 29.33 63.5 551 667 993 -0.83 0.00 0.00 0.000
2:46am 352 0 1 45 91 73.6 63.4 29.33 63.4 553 667 989 -0.91 0.00 0.00 0.000
2:47am 352 0 1 44 92 73.6 63.4 29.33 63.4 554 590 990 -0.90 0.00 0.00 0.000
2:48am 352 0 1 44 92 73.6 63.4 29.32 63.4 555 590 991 -0.89 0.00 0.00 0.000
2:49am 352 0 1 44 92 73.6 63.4 29.32 63.4 556 590 992 -0.87 0.00 0.00 0.000
2:50am 352 0 1 44 92 73.6 63.4 29.32 63.4 555 590 991 -0.86 0.00 0.00 0.000
2:51am 352 0 1 45 92 73.6 63.4 29.33 63.4 554 590 990 -0.84 0.00 0.00 0.000
2:52am 352 0 1 44 92 73.6 63.4 29.33 63.4 553 590 989 -0.83 0.00 0.00 0.000
2:53am 352 0 1 44 92 73.6 63.4 29.33 63.4 551 590 986 -0.82 0.00 0.00 0.000
2:54am 352 0 1 44 92 73.6 63.4 29.33 63.4 551 590 986 -0.80 0.00 0.00 0.000
2:55am 352 0 1 44 92 73.6 63.4 29.33 63.4 550 590 985 -0.79 0.00 0.00 0.000
2:56am 352 0 1 45 92 73.6 63.4 29.33 63.4 550 590 985 -0.78 0.00 0.00 0.000
2:57am 352 0 1 44 92 73.8 63.3 29.33 63.3 551 590 980 -0.86 0.00 0.00 0.000
2:58am 352 0 1 44 92 73.8 63.4 29.33 63.4 551 590 986 -0.75 0.00 0.00 0.000
2:59am 352 0 1 44 92 73.8 63.4 29.33 63.4 551 590 986 -0.74 0.00 0.00 0.000
3:00am 352 0 1 44 92 73.8 63.3 29.33 63.3 551 590 980 -0.82 0.00 0.00 0.000
3:01am 352 0 0 44 92 73.8 63.3 29.33 63.3 551 590 980 -0.81 0.00 0.00 0.000
3:02am 352 0 0 44 92 73.8 63.3 29.33 63.3 553 590 982 -0.80 0.00 0.00 0.000
3:03am 352 0 0 44 92 73.8 63.3 29.33 63.3 553 590 982 -0.78 0.00 0.00 0.000
3:04am 352 0 0 44 93 73.8 63.3 29.33 63.3 554 514 983 -0.77 0.00 0.00 0.000
3:05am 352 0 0 44 93 73.8 63.3 29.33 63.3 554 514 983 -0.76 0.00 0.00 0.000
3:06am 352 0 0 45 93 73.8 63.4 29.33 63.4 554 514 990 -0.64 0.00 0.00 0.000
3:07am 352 0 0 44 93 73.8 63.3 29.33 63.3 553 514 982 -0.73 0.00 0.00 0.000
3:08am 352 0 0 44 93 73.8 63.3 29.33 63.3 553 514 982 -0.72 0.00 0.00 0.000
3:09am 352 0 0 44 93 73.8 63.3 29.33 63.3 551 514 980 -0.71 0.00 0.00 0.000
3:10am 352 0 0 45 93 73.8 63.2 29.33 63.2 550 513 972 -0.80 0.00 0.00 0.000
3:11am 352 0 0 44 93 73.8 63.2 29.33 63.2 550 513 972 -0.78 0.00 0.00 0.000
3:12am 352 0 0 44 93 73.8 63.2 29.33 63.2 549 513 971 -0.77 0.00 0.00 0.000
3:13am 352 0 0 44 93 73.8 63.2 29.33 63.2 549 513 971 -0.76 0.00 0.00 0.000
3:14am 352 0 0 44 93 73.6 63.1 29.33 63.1 549 513 965 -0.84 0.00 0.00 0.000
3:15am 352 0 0 44 93 73.6 63.1 29.33 63.1 549 513 965 -0.83 0.00 0.00 0.000
3:16am 352 0 0 44 93 73.6 63.1 29.33 63.1 549 513 965 -0.82 0.00 0.00 0.000
3:17am 352 0 0 44 93 73.6 63.0 29.33 63.0 549 513 958 -0.90 0.00 0.00 0.000
3:18am 352 0 0 44 93 73.6 62.9 29.33 62.9 550 513 953 -0.99 0.00 0.00 0.000
3:19am 352 0 0 44 93 73.6 62.9 29.33 62.9 553 513 956 -0.97 0.00 0.00 0.000
3:20am 352 0 0 44 93 73.6 62.9 29.33 62.9 554 513 957 -0.96 0.00 0.00 0.000
3:21am 352 0 1 44 93 73.6 62.8 29.32 62.8 556 512 953 -1.04 0.00 0.00 0.000
3:22am 352 1 1 44 93 73.6 62.8 29.32 62.8 557 512 954 -1.02 0.00 0.00 0.000
3:23am 352 0 1 44 93 73.6 62.8 29.32 62.8 555 512 952 -1.00 0.00 0.00 0.000
3:24am 352 0 1 44 93 73.6 62.8 29.32 62.8 556 512 953 -0.99 0.00 0.00 0.000
3:25am 352 0 1 44 93 73.6 62.8 29.32 62.8 555 512 952 -0.97 0.00 0.00 0.000
3:26am 352 0 1 44 93 73.6 62.8 29.33 62.8 554 512 951 -0.95 0.00 0.00 0.000
3:27am 352 0 1 44 93 73.6 62.8 29.33 62.8 554 512 951 -0.94 0.00 0.00 0.000
3:28am 352 0 1 44 93 73.6 62.8 29.33 62.8 553 512 950 -0.92 0.00 0.00 0.000
3:29am 352 0 1 44 93 73.6 62.8 29.33 62.8 553 512 950 -0.91 0.00 0.00 0.000
3:30am 352 0 1 44 93 73.6 62.8 29.33 62.8 553 512 950 -0.89 0.00 0.00 0.000
3:31am 352 0 0 44 93 73.6 62.8 29.33 62.8 551 512 948 -0.88 0.00 0.00 0.000
3:32am 352 0 0 44 93 73.6 62.8 29.33 62.8 553 512 950 -0.86 0.00 0.00 0.000
3:33am 352 0 0 44 93 73.6 62.8 29.33 62.8 554 512 951 -0.85 0.00 0.00 0.000
3:34am 352 0 0 44 93 73.6 62.8 29.33 62.8 554 512 951 -0.83 0.00 0.00 0.000
3:35am 352 0 0 44 93 73.6 62.7 29.32 62.7 556 512 947 -0.92 0.00 0.00 0.000
3:36am 352 0 0 44 93 73.6 62.7 29.32 62.7 557 512 948 -0.90 0.00 0.00 0.000
3:37am 352 0 0 44 93 73.8 62.7 29.32 62.7 557 512 948 -0.89 0.00 0.00 0.000
3:38am 352 0 0 44 93 73.8 62.7 29.32 62.7 559 512 950 -0.87 0.00 0.00 0.000
3:39am 352 0 0 44 93 73.8 62.7 29.32 62.7 559 512 950 -0.86 0.00 0.00 0.000
3:40am 352 0 0 44 93 73.8 62.6 29.32 62.6 560 512 945 -0.94 0.00 0.00 0.000
3:41am 352 0 0 44 93 73.8 62.6 29.32 62.6 560 512 945 -0.93 0.00 0.00 0.000
3:42am 352 0 0 44 93 73.8 62.6 29.32 62.6 559 512 944 -0.91 0.00 0.00 0.000
3:43am 352 0 0 44 93 73.8 62.6 29.32 62.6 558 512 942 -0.90 0.00 0.00 0.000
3:44am 352 0 0 44 93 73.8 62.6 29.32 62.6 557 512 941 -0.88 0.00 0.00 0.000
3:45am 352 0 0 44 93 73.8 62.6 29.32 62.6 555 512 939 -0.87 0.00 0.00 0.000
3:46am 352 0 0 44 93 73.8 62.6 29.32 62.6 555 512 939 -0.85 0.00 0.00 0.000
3:47am 352 0 0 44 93 73.8 62.5 29.32 62.5 556 512 934 -0.94 0.00 0.00 0.000
3:48am 352 0 0 44 93 73.8 62.5 29.32 62.5 557 512 935 -0.92 0.00 0.00 0.000
3:49am 352 0 0 44 93 73.8 62.5 29.32 62.5 557 512 935 -0.91 0.00 0.00 0.000
3:50am 352 0 0 44 93 73.8 62.5 29.32 62.5 558 512 936 -0.89 0.00 0.00 0.000
3:51am 352 0 0 44 93 73.8 62.4 29.32 62.4 558 512 929 -0.97 0.00 0.00 0.000
3:52am 352 0 0 45 93 73.8 62.5 29.32 62.5 558 512 936 -0.86 0.00 0.00 0.000
3:53am 352 0 0 44 93 73.8 62.4 29.32 62.4 557 512 928 -0.94 0.00 0.00 0.000
3:54am 352 0 0 45 93 73.8 62.4 29.32 62.4 557 512 928 -0.93 0.00 0.00 0.000
3:55am 352 0 0 44 93 73.8 62.4 29.32 62.4 555 512 926 -0.91 0.00 0.00 0.000
3:56am 352 0 0 44 93 73.8 62.4 29.33 62.4 553 512 924 -0.90 0.00 0.00 0.000
3:57am 352 0 0 44 93 74.0 62.5 29.33 62.5 552 512 929 -0.78 0.00 0.00 0.000
3:58am 352 0 0 44 93 74.0 62.4 29.33 62.4 551 512 922 -0.87 0.00 0.00 0.000
3:59am 352 0 0 44 93 74.0 62.5 29.33 62.5 550 512 927 -0.76 0.00 0.00 0.000
4:00am 352 0 0 44 93 74.0 62.4 29.33 62.4 550 512 920 -0.84 0.00 0.00 0.000
4:01am 352 0 0 44 93 74.0 62.4 29.33 62.4 550 512 920 -0.83 0.00 0.00 0.000
4:02am 352 0 0 44 93 74.0 62.5 29.33 62.5 551 512 928 -0.72 0.00 0.00 0.000
4:03am 352 0 0 44 93 74.0 62.5 29.33 62.5 550 512 927 -0.71 0.00 0.00 0.000
4:04am 352 0 0 44 93 74.0 62.4 29.33 62.4 550 512 920 -0.79 0.00 0.00 0.000
4:05am 352 0 0 44 93 74.0 62.4 29.33 62.4 550 512 920 -0.78 0.00 0.00 0.000
4:06am 352 0 0 45 93 74.0 62.4 29.33 62.4 550 512 920 -0.77 0.00 0.00 0.000
4:07am 352 0 0 44 93 74.0 62.4 29.33 62.4 550 512 920 -0.75 0.00 0.00 0.000
4:08am 352 0 0 44 93 74.0 62.3 29.33 62.3 550 511 914 -0.84 0.00 0.00 0.000
4:09am 352 0 0 44 93 74.0 62.3 29.33 62.3 548 511 912 -0.83 0.00 0.00 0.000
4:10am 352 0 0 44 93 74.0 62.3 29.33 62.3 548 511 912 -0.81 0.00 0.00 0.000
4:11am 352 0 0 44 93 74.0 62.3 29.33 62.3 548 511 912 -0.80 0.00 0.00 0.000
4:12am 352 0 0 44 93 74.0 62.3 29.33 62.3 548 511 912 -0.79 0.00 0.00 0.000
4:13am 352 0 0 46 93 74.0 62.3 29.33 62.3 548 511 910 -0.77 0.00 0.00 0.000
4:14am 352 0 0 44 93 74.0 62.2 29.33 62.2 548 511 904 -0.86 0.00 0.00 0.000
4:15am 352 0 0 45 93 74.0 62.3 29.33 62.3 548 511 910 -0.75 0.00 0.00 0.000
4:16am 352 0 0 44 93 74.2 62.2 29.33 62.2 547 511 903 -0.83 0.00 0.00 0.000
4:17am 352 0 0 44 93 74.2 62.3 29.33 62.3 547 511 909 -0.72 0.00 0.00 0.000
4:18am 352 0 0 45 93 74.2 62.3 29.33 62.3 547 511 909 -0.71 0.00 0.00 0.000
4:19am 352 0 0 44 93 74.2 62.3 29.33 62.3 547 511 909 -0.70 0.00 0.00 0.000
4:20am 352 0 0 45 93 74.2 62.3 29.33 62.3 547 511 909 -0.68 0.00 0.00 0.000
4:21am 352 0 0 45 93 74.2 62.3 29.33 62.3 546 511 908 -0.67 0.00 0.00 0.000
4:22am 352 0 0 45 93 74.2 62.3 29.33 62.3 546 511 908 -0.66 0.00 0.00 0.000
4:23am 352 0 0 44 93 74.2 62.3 29.33 62.3 546 511 908 -0.65 0.00 0.00 0.000
4:24am 352 0 0 44 93 74.2 62.3 29.33 62.3 546 511 908 -0.64 0.00 0.00 0.000
4:25am 352 0 0 45 93 74.0 62.3 29.33 62.3 546 511 908 -0.63 0.00 0.00 0.000
4:26am 352 0 0 45 93 74.0 62.3 29.33 62.3 546 511 908 -0.62 0.00 0.00 0.000
4:27am 352 0 0 44 93 74.0 62.3 29.33 62.3 546 511 908 -0.61 0.00 0.00 0.000
4:28am 352 0 0 45 93 74.0 62.4 29.33 62.4 546 512 915 -0.50 0.00 0.00 0.000
4:29am 352 0 0 44 93 74.0 62.3 29.33 62.3 546 511 908 -0.59 0.00 0.00 0.000
|
Data provided from: Mark Hofmann's Bel Air, MD Weather Station |